首页
METAR-TAF:

METAR-TAF

机场 :

Muskegon County Airport

Muskegon, 密歇根州, 美国

纬度: 43-10-16N, 经度: 086-14-12W, 海拔: 191米

当前天气观测

该预报发布于32分钟前的00:55 UTC
静风
温度 3°C
湿度 81%
气压 1014 hPa
能見度: 14.5公里
阴天层高于2100英尺

METAR: KMKG 200055Z 00000KT 9SM OVC021 03/00 A2993 RMK AO2 SLP140 T00330000

时间: 20:27 (01:27 UTC)

预报

该预报发布于1小时和47分钟前的23:40 UTC
预报有效从20日的 00点(UTC)到 20日的 24点(UTC)
风速5节,风向西
能見度: 10公里
阴天层高于2500英尺
从 20日的 0700点(UTC)
风速3节,风向多变
能見度: 9.7公里
阴天层高于1500英尺
轻雾
从 20日的 1800点(UTC)
风速6节,风向西南
能見度: 10公里
阴天层高于1500英尺
从 20日的 2100点(UTC)
风速6节,风向南转西南
能見度: 10公里
阴天层高于2500英尺

TAF: KMKG 192340Z 2000/2024 26005KT P6SM OVC025 FM200700 VRB03KT 6SM BR OVC015 FM201800 23006KT P6SM OVC015 FM202100 20006KT P6SM OVC025

超过4000个机场的气象观测和天气预报(METAR&TAF报告)。

可查询的气象台以黄色和红色小点在地图上表示。

将鼠标移到小点上方,可查看气象台名称。

然后点击查看天气观测和预报。

如需切换地图:点击带黑十字的绿色按钮放大地图;点击带横线的绿色按钮缩小地图;或者点击绿色箭头查看邻近地区的地图。


METAR-TAF: